Time;durP1;ratioP1;P1;durP2;ratioP2;P2;SDS_P1;SDS_P2;PMS_P1;PMS_P2;Temp;Humidity;BMP_temperature;BMP_pressure;BME280_temperature;BME280_humidity;BME280_pressure;Samples;Min_cycle;Max_cycle;Signal;HPM_P1;HPM_P2
2021/09/16 00:01:12;;;;;;;6.62;3.55;;;;;;;9.61;70.97;99903.58;1739646;80;22649;-51
2021/09/16 00:03:39;;;;;;;6.70;3.37;;;;;;;9.57;70.96;99912.73;1739177;80;21065;-51
2021/09/16 00:06:05;;;;;;;7.10;3.27;;;;;;;9.53;70.87;99918.31;1740404;80;21433;-51
2021/09/16 00:08:33;;;;;;;10.33;3.03;;;;;;;9.49;70.97;99918.89;1739081;80;21056;-53
2021/09/16 00:10:59;;;;;;;7.22;3.08;;;;;;;9.46;71.11;99916.31;1741908;81;21048;-53
2021/09/16 00:13:26;;;;;;;4.75;2.87;;;;;;;9.46;71.19;99913.16;1737639;80;21509;-53
2021/09/16 00:15:54;;;;;;;4.40;2.58;;;;;;;9.47;71.17;99911.35;1740790;80;21752;-51
2021/09/16 00:18:21;;;;;;;9.50;4.47;;;;;;;9.47;71.10;99910.89;1738550;80;21555;-53
2021/09/16 00:20:49;;;;;;;4.17;3.05;;;;;;;9.47;71.01;99912.70;1741360;80;21100;-51
2021/09/16 00:23:16;;;;;;;6.10;4.10;;;;;;;9.46;71.01;99914.51;1739755;80;21374;-52
2021/09/16 00:25:44;;;;;;;4.92;3.25;;;;;;;9.45;70.95;99907.38;1742512;80;21014;-52
2021/09/16 00:28:10;;;;;;;8.30;4.30;;;;;;;9.43;70.82;99917.81;1740015;81;21093;-51
2021/09/16 00:30:37;;;;;;;10.58;3.95;;;;;;;9.39;70.78;99917.05;1739997;80;21012;-51
2021/09/16 00:33:05;;;;;;;6.83;4.00;;;;;;;9.35;70.69;99919.47;1735881;80;21390;-52
2021/09/16 00:35:32;;;;;;;8.40;3.27;;;;;;;9.32;70.78;99924.95;1737506;80;21104;-51
2021/09/16 00:37:59;;;;;;;9.73;3.77;;;;;;;9.28;70.73;99925.12;1741019;80;21635;-50
2021/09/16 00:40:27;;;;;;;5.30;2.92;;;;;;;9.23;70.78;99921.29;1739829;80;21095;-50
2021/09/16 00:42:53;;;;;;;6.92;3.08;;;;;;;9.21;70.88;99920.47;1752059;80;21105;-51
2021/09/16 00:45:19;;;;;;;4.25;2.42;;;;;;;9.20;70.93;99921.86;1735871;80;22188;-53
2021/09/16 00:47:49;;;;;;;5.22;2.42;;;;;;;9.20;70.99;99929.45;1718955;81;21108;-52
2021/09/16 00:50:17;;;;;;;8.10;3.77;;;;;;;9.19;70.90;99927.70;1738514;81;21110;-50
2021/09/16 00:52:46;;;;;;;10.28;3.60;;;;;;;9.19;70.85;99929.05;1751466;79;21296;-53
2021/09/16 00:55:14;;;;;;;5.53;3.27;;;;;;;9.18;70.93;99931.36;1760841;79;21056;-50
2021/09/16 00:57:47;;;;;;;7.77;4.43;;;;;;;9.16;71.02;99935.03;1759542;79;21045;-51
2021/09/16 01:00:15;;;;;;;14.10;4.70;;;;;;;9.13;70.89;99933.33;1754912;79;21111;-53
2021/09/16 01:02:41;;;;;;;11.23;4.40;;;;;;;9.09;70.93;99933.94;1757380;79;21108;-52
2021/09/16 01:05:09;;;;;;;10.07;5.37;;;;;;;9.05;70.91;99934.09;1759214;79;21052;-51
2021/09/16 01:07:38;;;;;;;7.60;4.33;;;;;;;9.01;70.92;99939.20;1758312;79;21067;-51
2021/09/16 01:10:09;;;;;;;5.35;2.92;;;;;;;8.96;71.02;99935.33;1755785;79;21052;-53
2021/09/16 01:12:37;;;;;;;6.80;3.03;;;;;;;8.94;71.06;99939.87;1760404;79;22075;-50
2021/09/16 01:15:08;;;;;;;7.30;3.33;;;;;;;8.91;71.04;99936.45;1762462;79;20946;-53
2021/09/16 01:17:36;;;;;;;6.23;2.90;;;;;;;8.90;71.02;99936.05;1762400;79;21894;-52
2021/09/16 01:20:06;;;;;;;7.37;4.13;;;;;;;8.90;70.99;99934.23;1758217;79;21433;-52
2021/09/16 01:22:35;;;;;;;6.60;4.57;;;;;;;8.89;71.01;99931.14;1761345;79;20969;-53
2021/09/16 01:25:02;;;;;;;9.50;4.40;;;;;;;8.88;71.11;99926.70;1760128;79;21041;-53
2021/09/16 01:27:29;;;;;;;6.23;4.40;;;;;;;8.88;71.13;99927.16;1756095;79;21143;-53
2021/09/16 01:29:55;;;;;;;5.73;3.97;;;;;;;8.88;71.11;99926.70;1758090;79;21071;-51
2021/09/16 01:32:22;;;;;;;7.17;4.47;;;;;;;8.88;70.98;99925.83;1753190;79;21032;-53
2021/09/16 01:34:48;;;;;;;8.03;4.97;;;;;;;8.87;70.82;99921.38;1757328;79;21072;-53
2021/09/16 01:37:16;;;;;;;11.80;5.93;;;;;;;8.83;70.74;99920.64;1761292;79;21080;-52
2021/09/16 01:39:44;;;;;;;8.70;4.93;;;;;;;8.79;70.84;99919.00;1755514;79;21079;-52
2021/09/16 01:42:12;;;;;;;13.97;6.63;;;;;;;8.77;70.94;99918.64;1760437;79;21029;-52
2021/09/16 01:44:39;;;;;;;9.47;5.47;;;;;;;8.74;70.98;99918.31;1760125;79;21064;-52
2021/09/16 01:47:06;;;;;;;8.03;4.70;;;;;;;8.72;71.13;99913.00;1759294;79;21206;-52
2021/09/16 01:49:33;;;;;;;8.25;3.95;;;;;;;8.73;71.14;99916.56;1759718;79;21398;-52
2021/09/16 01:52:01;;;;;;;6.40;4.33;;;;;;;8.72;71.20;99917.48;1764375;79;20964;-52
2021/09/16 01:54:27;;;;;;;12.20;5.80;;;;;;;8.71;71.18;99908.56;1750235;79;21691;-52
2021/09/16 01:56:55;;;;;;;10.57;6.37;;;;;;;8.71;71.28;99910.37;1754575;79;21536;-52
2021/09/16 01:59:22;;;;;;;13.10;7.07;;;;;;;8.70;71.36;99912.64;1754509;79;21072;-51
2021/09/16 02:01:48;;;;;;;9.83;6.20;;;;;;;8.69;71.14;99912.22;1753740;79;21294;-50
2021/09/16 02:04:15;;;;;;;12.93;6.67;;;;;;;8.67;71.24;99910.97;1750875;79;21453;-52
2021/09/16 02:06:41;;;;;;;12.27;7.07;;;;;;;8.66;71.31;99917.73;1752157;79;21315;-52
2021/09/16 02:09:08;;;;;;;12.53;7.27;;;;;;;8.63;71.20;99913.34;1752645;79;21467;-51
2021/09/16 02:11:34;;;;;;;9.87;5.13;;;;;;;8.58;71.24;99913.99;1756840;79;22418;-51
2021/09/16 02:14:02;;;;;;;6.50;4.53;;;;;;;8.54;71.39;99912.34;1752073;79;21275;-51
2021/09/16 02:16:28;;;;;;;7.67;4.77;;;;;;;8.55;71.42;99914.56;1753564;79;22389;-50
2021/09/16 02:18:56;;;;;;;10.30;4.60;;;;;;;8.54;71.35;99908.78;1752859;79;21101;-52
2021/09/16 02:21:24;;;;;;;6.67;5.00;;;;;;;8.53;71.34;99923.13;1754946;79;21123;-52
2021/09/16 02:23:51;;;;;;;8.53;5.37;;;;;;;8.51;71.28;99920.49;1755115;79;21570;-52
2021/09/16 02:26:17;;;;;;;9.20;5.73;;;;;;;8.49;71.35;99919.70;1755997;79;21080;-50
2021/09/16 02:28:43;;;;;;;8.33;5.03;;;;;;;8.48;71.45;99915.27;1748099;80;21645;-51
2021/09/16 02:31:10;;;;;;;12.37;6.20;;;;;;;8.47;71.61;99918.88;1752855;79;21084;-51
2021/09/16 02:33:36;;;;;;;6.53;4.90;;;;;;;8.46;71.67;99919.80;1751200;79;21045;-52
2021/09/16 02:36:03;;;;;;;9.37;5.30;;;;;;;8.47;71.61;99916.66;1748680;79;21124;-51
2021/09/16 02:38:29;;;;;;;7.73;5.13;;;;;;;8.44;71.57;99918.09;1752705;79;21057;-52
2021/09/16 02:40:57;;;;;;;12.33;4.77;;;;;;;8.42;71.62;99918.64;1750920;79;21963;-52
2021/09/16 02:43:23;;;;;;;9.37;4.83;;;;;;;8.41;71.64;99915.09;1752889;79;21088;-52
2021/09/16 02:45:51;;;;;;;8.77;3.87;;;;;;;8.41;71.70;99919.58;1747974;79;21091;-52
2021/09/16 02:48:19;;;;;;;5.77;3.33;;;;;;;8.40;71.78;99917.36;1748978;79;21057;-51
2021/09/16 02:50:45;;;;;;;7.53;3.90;;;;;;;8.42;71.68;99922.67;1750305;79;21374;-51
2021/09/16 02:53:14;;;;;;;9.20;4.03;;;;;;;8.41;71.63;99919.58;1753522;79;21305;-52
2021/09/16 02:55:40;;;;;;;7.43;4.17;;;;;;;8.41;71.69;99915.55;1778235;78;21100;-52
2021/09/16 02:58:08;;;;;;;8.30;4.20;;;;;;;8.41;71.69;99923.59;1747029;80;20983;-52
2021/09/16 03:00:34;;;;;;;8.97;4.00;;;;;;;8.42;71.64;99924.02;1746654;80;21119;-52
2021/09/16 03:03:00;;;;;;;6.60;3.63;;;;;;;8.41;71.65;99921.80;1758743;79;21055;-50
2021/09/16 03:05:27;;;;;;;12.93;5.07;;;;;;;8.42;71.69;99917.30;1758316;79;21186;-51
2021/09/16 03:07:53;;;;;;;6.93;4.63;;;;;;;8.42;71.68;99917.30;1758925;79;21119;-50
2021/09/16 03:10:20;;;;;;;8.43;4.90;;;;;;;8.41;71.74;99916.89;1758835;79;21134;-52
2021/09/16 03:12:48;;;;;;;5.90;3.93;;;;;;;8.40;71.68;99913.33;1762398;79;21112;-51
2021/09/16 03:15:14;;;;;;;9.73;3.43;;;;;;;8.40;71.71;99907.97;1760835;79;21048;-52
2021/09/16 03:17:42;;;;;;;8.20;3.57;;;;;;;8.39;71.80;99902.66;1755863;79;21051;-52
2021/09/16 03:20:10;;;;;;;10.17;3.07;;;;;;;8.40;71.72;99905.28;1753863;79;20996;-52
2021/09/16 03:22:38;;;;;;;7.80;3.80;;;;;;;8.42;71.63;99905.23;1774003;78;21107;-52
2021/09/16 03:25:06;;;;;;;8.30;4.50;;;;;;;8.41;71.69;99899.45;1736504;80;21150;-50
2021/09/16 03:27:32;;;;;;;4.40;3.50;;;;;;;8.40;71.89;99901.27;1736101;79;21012;-51
2021/09/16 03:29:59;;;;;;;6.90;3.73;;;;;;;8.40;72.02;99903.94;1763219;79;21075;-53
2021/09/16 03:32:26;;;;;;;7.37;3.70;;;;;;;8.39;72.07;99906.22;1763484;79;22246;-50
2021/09/16 03:34:52;;;;;;;6.30;3.77;;;;;;;8.40;71.97;99898.58;1760837;79;21649;-52
2021/09/16 03:37:18;;;;;;;6.57;3.57;;;;;;;8.39;72.12;99897.30;1759245;79;21075;-51
2021/09/16 03:39:45;;;;;;;6.60;4.27;;;;;;;8.38;72.15;99898.22;1762359;79;21649;-52
2021/09/16 03:42:12;;;;;;;5.60;2.40;;;;;;;8.36;72.20;99895.59;1764262;79;22366;-51
2021/09/16 03:44:38;;;;;;;8.03;3.57;;;;;;;8.37;72.25;99896.47;1761981;79;21072;-52
2021/09/16 03:47:05;;;;;;;4.30;3.13;;;;;;;8.38;72.27;99894.20;1758296;79;21121;-51
2021/09/16 03:49:35;;;;;;;5.60;2.97;;;;;;;8.40;72.33;99895.02;1767348;79;21100;-49
2021/09/16 03:51:59;;;;;;;6.87;3.37;;;;;;;8.42;72.38;99901.21;1760609;79;20977;-52
2021/09/16 03:54:26;;;;;;;7.20;2.57;;;;;;;8.46;72.52;99892.98;1752032;79;21590;-51
2021/09/16 03:56:53;;;;;;;3.87;2.40;;;;;;;8.48;72.71;99889.78;1751260;80;21466;-52
2021/09/16 03:59:19;;;;;;;4.83;2.30;;;;;;;8.50;72.95;99884.36;1750798;80;20969;-51
2021/09/16 04:01:47;;;;;;;7.33;4.03;;;;;;;8.53;73.18;99886.91;1747244;80;20945;-51
2021/09/16 04:04:15;;;;;;;7.97;3.70;;;;;;;8.59;73.18;99892.91;1750867;80;21343;-52
2021/09/16 04:06:42;;;;;;;5.67;3.77;;;;;;;8.62;73.21;99897.30;1747779;80;22257;-51
2021/09/16 04:09:08;;;;;;;7.30;3.37;;;;;;;8.62;73.23;99911.59;1744737;80;21021;-50
2021/09/16 04:11:36;;;;;;;5.43;3.30;;;;;;;8.59;73.31;99915.72;1753377;80;21087;-51
2021/09/16 04:14:02;;;;;;;5.50;3.53;;;;;;;8.59;73.47;99935.84;1743301;80;21061;-53
2021/09/16 04:16:28;;;;;;;15.50;5.43;;;;;;;8.59;73.77;99939.02;1744270;80;21064;-52
2021/09/16 04:18:57;;;;;;;10.43;5.93;;;;;;;8.59;74.64;99936.34;1745113;80;20985;-51
2021/09/16 04:21:23;;;;;;;10.97;5.33;;;;;;;8.62;75.20;99935.73;1748728;80;21053;-50
2021/09/16 04:23:49;;;;;;;10.83;5.93;;;;;;;8.69;75.61;99933.23;1748744;80;20950;-51
2021/09/16 04:26:17;;;;;;;15.30;7.43;;;;;;;8.77;75.98;99936.95;1749227;80;20918;-52
2021/09/16 04:28:43;;;;;;;14.63;6.17;;;;;;;8.90;76.34;99939.60;1747763;80;20906;-51
2021/09/16 04:31:10;;;;;;;8.93;3.67;;;;;;;9.01;76.60;99944.10;1751969;80;21093;-51
2021/09/16 04:33:37;;;;;;;6.60;4.17;;;;;;;9.11;76.93;99951.30;1749370;80;21447;-50
2021/09/16 04:36:03;;;;;;;6.50;4.97;;;;;;;9.24;77.08;99952.59;1749964;80;21330;-50
2021/09/16 04:38:30;;;;;;;8.83;5.45;;;;;;;9.34;77.17;99945.05;1749746;80;20981;-51
2021/09/16 04:40:57;;;;;;;15.63;7.53;;;;;;;9.47;77.17;99958.38;1747088;80;21013;-50
2021/09/16 04:43:23;;;;;;;13.48;8.05;;;;;;;9.58;77.19;99956.60;1750614;80;21132;-51
2021/09/16 04:45:49;;;;;;;16.10;9.00;;;;;;;9.70;77.12;99951.58;1751125;80;20974;-50
2021/09/16 04:48:16;;;;;;;15.78;8.65;;;;;;;9.84;77.03;99951.90;1751974;80;20978;-51
2021/09/16 04:50:42;;;;;;;12.90;7.67;;;;;;;10.00;76.95;99953.47;1745853;80;20890;-52
2021/09/16 04:53:09;;;;;;;18.80;9.68;;;;;;;10.14;76.92;99952.39;1745434;79;20946;-51
2021/09/16 04:55:35;;;;;;;21.35;10.13;;;;;;;10.31;76.87;99953.03;1757984;79;21092;-51
2021/09/16 04:58:01;;;;;;;18.75;10.68;;;;;;;10.48;76.93;99951.81;1760949;79;20925;-52
2021/09/16 05:00:27;;;;;;;21.90;11.03;;;;;;;10.69;76.87;99946.42;1762432;79;21449;-51
2021/09/16 05:02:54;;;;;;;19.32;10.90;;;;;;;10.88;76.71;99948.21;1760247;79;21597;-51
2021/09/16 05:05:21;;;;;;;22.65;10.40;;;;;;;11.11;76.71;99943.08;1757368;79;21366;-52
2021/09/16 05:07:47;;;;;;;15.90;9.03;;;;;;;11.36;76.52;99939.61;1755251;79;21666;-53
2021/09/16 05:10:14;;;;;;;14.03;7.87;;;;;;;11.58;76.22;99933.16;1758096;79;21504;-52
2021/09/16 05:12:42;;;;;;;16.87;8.40;;;;;;;11.78;76.02;99926.34;1757155;79;21053;-52
2021/09/16 05:15:11;;;;;;;13.28;7.40;;;;;;;11.96;75.93;99921.84;1758586;79;21140;-50
2021/09/16 05:17:37;;;;;;;12.53;7.17;;;;;;;12.12;75.70;99922.31;1755458;79;21510;-52
2021/09/16 05:20:04;;;;;;;15.18;8.48;;;;;;;12.28;75.26;99917.46;1757409;79;21215;-51
2021/09/16 05:22:32;;;;;;;20.40;8.95;;;;;;;12.43;74.83;99928.80;1757635;79;22308;-50
2021/09/16 05:24:58;;;;;;;11.63;7.08;;;;;;;12.57;74.48;99937.05;1758668;79;21358;-50
2021/09/16 05:27:26;;;;;;;16.97;8.15;;;;;;;12.71;74.30;99929.55;1763411;79;21663;-51
2021/09/16 05:29:53;;;;;;;17.70;9.83;;;;;;;12.83;74.18;99927.55;1779729;78;21386;-51
2021/09/16 05:32:19;;;;;;;16.87;8.98;;;;;;;12.95;74.01;99936.78;1745670;80;21077;-52
2021/09/16 05:34:45;;;;;;;17.60;9.33;;;;;;;13.09;73.56;99934.22;1745576;79;21113;-49
2021/09/16 05:37:13;;;;;;;16.70;7.75;;;;;;;13.25;73.26;99931.08;1768585;79;21049;-52
2021/09/16 05:39:40;;;;;;;12.45;6.80;;;;;;;13.40;73.22;99936.09;1766221;79;21749;-52
2021/09/16 05:42:07;;;;;;;17.82;9.43;;;;;;;13.56;72.76;99939.18;1777127;78;21127;-53
2021/09/16 05:44:33;;;;;;;19.07;7.95;;;;;;;13.74;72.47;99932.31;1778958;78;21070;-51
2021/09/16 05:47:00;;;;;;;14.78;7.12;;;;;;;13.90;72.11;99935.38;1780526;78;21061;-53
2021/09/16 05:49:27;;;;;;;13.60;5.67;;;;;;;14.05;71.73;99928.18;1744480;80;21018;-52
2021/09/16 05:51:54;;;;;;;18.25;6.22;;;;;;;14.22;70.75;99923.11;1744105;80;21149;-51
2021/09/16 05:54:22;;;;;;;13.65;5.65;;;;;;;14.37;69.87;99917.63;1757644;79;21105;-52
2021/09/16 05:56:49;;;;;;;15.85;6.62;;;;;;;14.53;69.28;99918.09;1755113;79;21183;-53
2021/09/16 05:59:15;;;;;;;15.40;5.62;;;;;;;14.66;68.48;99913.65;1761150;79;21196;-52
2021/09/16 06:01:43;;;;;;;12.13;4.53;;;;;;;14.80;67.79;99910.09;1761570;79;20969;-52
2021/09/16 06:04:09;;;;;;;8.43;3.75;;;;;;;14.92;67.35;99916.08;1754222;79;21526;-53
2021/09/16 06:06:36;;;;;;;5.45;2.37;;;;;;;15.03;66.13;99917.63;1758387;79;21080;-53
2021/09/16 06:09:02;;;;;;;4.65;2.60;;;;;;;15.13;64.45;99919.66;1760166;79;21095;-52
2021/09/16 06:11:30;;;;;;;5.83;2.25;;;;;;;15.23;63.81;99914.48;1763049;79;21145;-52
2021/09/16 06:13:58;;;;;;;9.33;1.35;;;;;;;15.32;62.41;99915.25;1755415;79;21060;-53
2021/09/16 06:16:24;;;;;;;2.85;1.20;;;;;;;15.40;61.19;99910.19;1755271;79;21048;-52
2021/09/16 06:18:51;;;;;;;4.45;1.22;;;;;;;15.50;60.28;99912.69;1762688;79;21602;-53
2021/09/16 06:21:18;;;;;;;2.60;1.02;;;;;;;15.57;59.23;99917.25;1753955;79;21509;-53
2021/09/16 06:23:44;;;;;;;8.55;1.00;;;;;;;15.64;58.35;99915.03;1757253;79;21556;-52
2021/09/16 06:26:11;;;;;;;4.95;0.95;;;;;;;15.71;58.11;99917.23;1753387;79;21534;-52
2021/09/16 06:28:39;;;;;;;5.60;1.20;;;;;;;15.78;57.35;99919.91;1756778;79;21088;-53
2021/09/16 06:31:06;;;;;;;5.87;0.80;;;;;;;15.82;56.64;99913.80;1760058;79;21115;-53
2021/09/16 06:33:32;;;;;;;4.10;1.10;;;;;;;15.88;54.92;99918.33;1758676;79;21118;-53
2021/09/16 06:35:58;;;;;;;2.52;1.00;;;;;;;15.94;53.74;99908.02;1759182;79;21125;-54
2021/09/16 06:38:24;;;;;;;2.47;0.75;;;;;;;16.01;53.68;99910.69;1777114;79;22298;-54
2021/09/16 06:40:51;;;;;;;3.98;0.65;;;;;;;16.09;54.01;99915.11;1742271;80;21100;-52
2021/09/16 06:43:19;;;;;;;3.40;0.80;;;;;;;16.16;53.56;99911.87;1744365;80;21085;-53
2021/09/16 06:45:45;;;;;;;2.00;0.90;;;;;;;16.24;52.75;99914.95;1743406;80;22392;-54
2021/09/16 06:48:11;;;;;;;4.53;0.70;;;;;;;16.33;52.38;99912.58;1781381;78;21037;-54
2021/09/16 06:50:38;;;;;;;5.15;1.00;;;;;;;16.42;52.52;99912.78;1776841;78;21048;-52
2021/09/16 06:53:04;;;;;;;9.65;0.90;;;;;;;16.51;52.52;99916.70;1776727;78;21079;-52
2021/09/16 06:55:31;;;;;;;2.77;0.80;;;;;;;16.58;53.19;99910.77;1739484;80;21365;-52
2021/09/16 06:57:57;;;;;;;5.12;0.70;;;;;;;16.68;53.44;99916.91;1754039;79;22396;-53
2021/09/16 07:00:25;;;;;;;5.40;0.85;;;;;;;16.76;51.93;99917.27;1759003;79;21072;-54
2021/09/16 07:02:52;;;;;;;8.83;0.88;;;;;;;16.84;52.12;99908.91;1749167;79;21064;-53
2021/09/16 07:05:19;;;;;;;3.92;0.80;;;;;;;16.92;52.11;99909.75;1749128;79;21077;-53
2021/09/16 07:07:45;;;;;;;3.55;0.80;;;;;;;16.99;52.13;99922.80;1752279;79;21081;-53
2021/09/16 07:10:12;;;;;;;5.17;0.80;;;;;;;17.08;51.97;99918.55;1756525;79;21055;-54
2021/09/16 07:12:38;;;;;;;6.72;0.80;;;;;;;17.18;51.23;99929.11;1751912;79;21566;-52
2021/09/16 07:15:07;;;;;;;6.10;0.70;;;;;;;17.24;51.15;99923.73;1758537;79;21037;-53
2021/09/16 07:17:34;;;;;;;4.60;0.70;;;;;;;17.28;51.10;99921.15;1755838;79;20887;-53
2021/09/16 07:20:01;;;;;;;3.62;0.70;;;;;;;17.33;50.64;99922.58;1752865;79;22031;-54
2021/09/16 07:22:27;;;;;;;4.85;0.70;;;;;;;17.39;50.59;99926.69;1754244;79;21299;-53
2021/09/16 07:24:54;;;;;;;10.50;0.80;;;;;;;17.47;50.75;99923.39;1752647;79;21056;-53
2021/09/16 07:27:20;;;;;;;4.37;0.80;;;;;;;17.54;50.67;99924.67;1754601;79;21067;-55
2021/09/16 07:29:46;;;;;;;7.60;0.82;;;;;;;17.61;49.28;99920.02;1757032;79;21447;-53
2021/09/16 07:32:14;;;;;;;2.80;1.00;;;;;;;17.68;49.33;99917.28;1753464;79;21186;-55
2021/09/16 07:34:40;;;;;;;3.98;0.80;;;;;;;17.75;49.68;99921.27;1762016;79;22733;-54
2021/09/16 07:37:07;;;;;;;6.15;0.82;;;;;;;17.83;50.43;99922.05;1757316;79;20962;-54
2021/09/16 07:39:35;;;;;;;8.35;0.75;;;;;;;17.90;49.83;99913.80;1756266;79;20984;-52
2021/09/16 07:42:01;;;;;;;4.22;0.72;;;;;;;17.97;48.87;99916.91;1755291;79;20945;-53
2021/09/16 07:44:28;;;;;;;5.70;0.93;;;;;;;18.04;48.54;99915.45;1757621;79;20882;-54
2021/09/16 07:46:55;;;;;;;2.98;0.50;;;;;;;18.07;48.17;99925.63;1758111;79;20925;-54
2021/09/16 07:49:22;;;;;;;2.12;0.50;;;;;;;18.06;47.51;99916.21;1756579;79;20953;-54
2021/09/16 07:51:49;;;;;;;7.62;0.60;;;;;;;18.06;47.54;99917.08;1755294;79;21435;-53
2021/09/16 07:54:15;;;;;;;9.53;0.70;;;;;;;18.08;47.82;99919.70;1755747;79;21450;-54
2021/09/16 07:56:42;;;;;;;1.35;0.60;;;;;;;18.11;47.14;99912.66;1755862;79;21479;-52
2021/09/16 07:59:09;;;;;;;2.60;0.60;;;;;;;18.11;46.51;99911.30;1758343;79;21439;-54
2021/09/16 08:01:35;;;;;;;1.95;0.60;;;;;;;18.09;45.78;99914.63;1760983;79;21361;-53
2021/09/16 08:04:03;;;;;;;2.85;0.60;;;;;;;18.10;45.68;99910.92;1751964;79;21558;-51
2021/09/16 08:06:30;;;;;;;4.67;0.47;;;;;;;18.12;45.29;99907.07;1753881;79;21309;-54
2021/09/16 08:10:30;;;;;;;9.48;0.70;;;;;;;18.24;45.44;99905.27;1793407;77;29383;-52
2021/09/16 08:12:58;;;;;;;1.85;0.57;;;;;;;18.28;45.34;99911.36;1768637;79;21101;-53
2021/09/16 08:15:24;;;;;;;2.30;0.60;;;;;;;18.37;44.84;99915.58;1767037;79;21123;-51
2021/09/16 08:17:51;;;;;;;2.27;0.40;;;;;;;18.43;44.74;99908.31;1767433;79;21036;-51
2021/09/16 08:20:18;;;;;;;1.98;0.50;;;;;;;18.51;44.77;99914.52;1772945;78;21284;-51
2021/09/16 08:22:45;;;;;;;2.33;0.55;;;;;;;18.59;44.93;99906.64;1768557;79;21546;-55
2021/09/16 08:25:13;;;;;;;0.75;0.50;;;;;;;18.65;44.31;99912.96;1765884;79;22410;-54
2021/09/16 08:27:40;;;;;;;0.72;0.40;;;;;;;18.70;44.21;99916.21;1768920;79;22177;-55
2021/09/16 08:30:08;;;;;;;4.10;0.50;;;;;;;18.75;43.58;99913.98;1765729;78;21668;-56
2021/09/16 08:32:35;;;;;;;2.08;0.50;;;;;;;18.81;43.30;99909.39;1752179;79;22213;-54
2021/09/16 08:35:09;;;;;;;3.42;0.50;;;;;;;18.90;43.54;99910.02;1744718;80;21860;-55
2021/09/16 08:37:35;;;;;;;1.00;0.40;;;;;;;19.02;44.18;99912.77;1745921;80;20947;-55
2021/09/16 08:40:03;;;;;;;3.30;0.42;;;;;;;19.12;43.39;99911.91;1750182;80;21087;-55
2021/09/16 08:42:29;;;;;;;1.92;0.40;;;;;;;19.18;42.76;99903.71;1744997;80;21132;-54
2021/09/16 08:44:57;;;;;;;2.15;0.40;;;;;;;19.23;41.91;99906.92;1745136;80;21105;-53
2021/09/16 08:47:27;;;;;;;2.08;0.50;;;;;;;19.28;41.97;99908.30;1742489;80;21350;-55
2021/09/16 08:49:54;;;;;;;0.60;0.40;;;;;;;19.35;42.11;99903.20;1739545;80;21043;-53
2021/09/16 08:52:22;;;;;;;1.20;0.42;;;;;;;19.41;41.59;99906.78;1744351;80;21166;-56
2021/09/16 08:54:48;;;;;;;0.60;0.40;;;;;;;19.44;41.27;99908.40;1745143;80;21073;-54
2021/09/16 08:57:16;;;;;;;3.55;0.40;;;;;;;19.47;40.83;99913.62;1746685;80;21105;-53
2021/09/16 08:59:45;;;;;;;1.12;0.60;;;;;;;19.47;40.87;99907.70;1745337;80;21626;-55
2021/09/16 09:02:13;;;;;;;2.52;0.40;;;;;;;19.53;41.07;99909.91;1745848;80;21078;-56
2021/09/16 09:04:39;;;;;;;0.80;0.45;;;;;;;19.62;42.22;99906.42;1746179;80;21123;-54
2021/09/16 09:07:06;;;;;;;1.32;0.42;;;;;;;19.71;42.18;99895.72;1710031;81;21144;-55
2021/09/16 09:09:33;;;;;;;2.17;0.47;;;;;;;19.80;42.12;99899.92;1704581;81;22078;-54
2021/09/16 09:12:13;;;;;;;3.12;0.60;;;;;;;19.90;41.74;99900.02;1730849;80;21861;-53
2021/09/16 09:14:45;;;;;;;1.45;0.47;;;;;;;19.92;41.02;99896.14;1727133;80;21687;-53
2021/09/16 09:17:29;;;;;;;2.67;0.50;;;;;;;19.96;41.27;99902.22;1736449;81;20983;-54
2021/09/16 09:20:01;;;;;;;1.82;0.40;;;;;;;19.97;41.37;99902.59;1731386;80;21046;-55
2021/09/16 09:22:33;;;;;;;1.50;0.53;;;;;;;20.01;41.48;99902.69;1732625;81;21349;-55
2021/09/16 09:25:09;;;;;;;2.08;0.50;;;;;;;20.08;40.74;99899.80;1734668;80;20994;-52
2021/09/16 09:27:39;;;;;;;1.67;0.50;;;;;;;20.13;40.49;99892.59;1733089;80;21157;-55
2021/09/16 09:30:25;;;;;;;2.33;0.50;;;;;;;20.17;40.07;99894.92;1729093;80;21202;-54
2021/09/16 09:33:00;;;;;;;6.87;0.70;;;;;;;20.20;40.40;99895.16;1726687;80;21109;-56
2021/09/16 09:35:38;;;;;;;3.12;0.50;;;;;;;20.16;40.18;99890.97;1732469;80;21146;-54
2021/09/16 09:38:18;;;;;;;1.52;0.55;;;;;;;20.11;39.77;99892.72;1735186;81;21055;-54
2021/09/16 09:40:48;;;;;;;5.30;0.60;;;;;;;20.07;39.70;99894.48;1734969;80;21511;-53
2021/09/16 09:43:34;;;;;;;3.27;0.57;;;;;;;20.00;40.05;99894.98;1733619;80;21090;-53
2021/09/16 09:46:13;;;;;;;2.25;0.50;;;;;;;19.96;40.55;99892.16;1731814;80;21442;-54
2021/09/16 09:48:59;;;;;;;1.22;0.53;;;;;;;19.98;41.08;99885.21;1731455;80;21119;-55
2021/09/16 09:51:54;;;;;;;0.80;0.60;;;;;;;20.01;40.97;99884.43;1734113;80;20975;-56
2021/09/16 09:54:36;;;;;;;2.75;0.60;;;;;;;20.06;40.76;99884.06;1732383;81;21488;-54
2021/09/16 09:57:14;;;;;;;2.77;0.50;;;;;;;20.12;40.57;99883.52;1733383;81;21105;-54
2021/09/16 10:00:12;;;;;;;2.83;0.50;;;;;;;20.18;41.60;99881.63;1733508;81;21537;-55
2021/09/16 10:02:54;;;;;;;0.80;0.50;;;;;;;20.23;40.58;99881.25;1733758;80;21033;-56
2021/09/16 10:05:38;;;;;;;1.07;0.60;;;;;;;20.23;40.81;99882.11;1727079;80;21095;-57
2021/09/16 10:08:10;;;;;;;1.45;0.60;;;;;;;20.26;41.21;99880.96;1730221;80;20930;-56
2021/09/16 10:10:43;;;;;;;3.10;0.60;;;;;;;20.28;40.86;99880.34;1733312;80;21839;-55
2021/09/16 10:13:17;;;;;;;2.47;0.47;;;;;;;20.27;40.77;99876.73;1738060;81;20959;-53
2021/09/16 10:15:38;;;;;;;0.90;0.53;;;;;;;20.26;40.56;99873.63;1735987;80;20976;-54
2021/09/16 10:18:06;;;;;;;3.67;0.60;;;;;;;20.26;40.16;99873.63;1701303;82;20935;-55
2021/09/16 10:20:33;;;;;;;1.62;0.60;;;;;;;20.25;40.23;99875.12;1688761;82;20979;-55
2021/09/16 10:23:07;;;;;;;6.35;0.60;;;;;;;20.26;40.21;99873.63;1689845;83;21083;-57
2021/09/16 10:25:33;;;;;;;2.98;0.60;;;;;;;20.31;40.49;99871.87;1687869;83;20933;-56
2021/09/16 10:28:06;;;;;;;6.25;0.90;;;;;;;20.34;40.71;99867.03;1689726;82;20922;-56
2021/09/16 10:30:42;;;;;;;4.67;0.50;;;;;;;20.41;40.82;99868.76;1695411;82;21000;-54
2021/09/16 10:33:16;;;;;;;1.10;0.50;;;;;;;20.49;40.45;99865.34;1688780;82;21479;-54
2021/09/16 10:36:02;;;;;;;0.90;0.50;;;;;;;20.55;40.61;99863.44;1687626;83;21121;-54
2021/09/16 10:38:42;;;;;;;0.72;0.47;;;;;;;20.61;40.58;99866.49;1696981;82;22238;-55
2021/09/16 10:41:28;;;;;;;0.70;0.50;;;;;;;20.67;40.84;99861.00;1694858;83;20915;-53
2021/09/16 10:44:08;;;;;;;1.65;0.62;;;;;;;20.74;40.66;99858.95;1691309;82;20966;-56
2021/09/16 10:46:46;;;;;;;2.60;0.60;;;;;;;20.80;39.96;99861.64;1692077;82;21010;-55
2021/09/16 10:49:23;;;;;;;3.70;0.50;;;;;;;20.84;40.42;99860.34;1686851;82;21633;-56
2021/09/16 10:52:01;;;;;;;1.22;0.62;;;;;;;20.90;40.49;99857.09;1682644;83;21624;-57
2021/09/16 10:54:57;;;;;;;3.37;0.80;;;;;;;20.95;40.10;99852.05;1688624;83;21136;-55
2021/09/16 10:57:40;;;;;;;2.15;0.60;;;;;;;21.00;40.45;99851.66;1694075;82;21025;-57
2021/09/16 11:00:17;;;;;;;1.10;0.50;;;;;;;21.02;40.72;99853.73;1693400;83;21177;-56
2021/09/16 11:02:49;;;;;;;3.08;0.60;;;;;;;21.03;40.10;99854.97;1682015;83;21713;-56
2021/09/16 11:05:20;;;;;;;1.17;0.60;;;;;;;21.05;40.06;99855.70;1677272;83;21097;-56
2021/09/16 11:07:59;;;;;;;1.60;0.60;;;;;;;21.00;40.75;99851.16;1741635;80;20859;-56
2021/09/16 11:10:31;;;;;;;2.05;0.60;;;;;;;21.01;40.30;99845.19;1739506;80;21458;-57
2021/09/16 11:13:38;;;;;;;0.80;0.50;;;;;;;21.00;40.42;99847.06;1746033;80;21105;-56
2021/09/16 11:16:06;;;;;;;2.60;0.53;;;;;;;21.03;40.29;99845.89;1749100;80;21511;-56
2021/09/16 11:18:33;;;;;;;1.00;0.60;;;;;;;21.06;40.14;99842.89;1749223;80;21006;-56
2021/09/16 11:21:03;;;;;;;2.08;0.60;;;;;;;21.08;39.88;99844.49;1740495;80;21795;-57
2021/09/16 11:23:39;;;;;;;1.05;0.60;;;;;;;21.11;40.18;99841.95;1743746;80;20956;-56
2021/09/16 11:26:06;;;;;;;7.58;0.68;;;;;;;21.14;39.94;99837.09;1748191;80;21844;-56
2021/09/16 11:28:32;;;;;;;3.80;0.53;;;;;;;21.15;39.81;99834.72;1749565;80;21775;-56
2021/09/16 11:30:59;;;;;;;1.15;0.70;;;;;;;21.18;39.77;99825.91;1742101;80;21090;-56
2021/09/16 11:33:26;;;;;;;1.37;0.65;;;;;;;21.22;39.50;99832.31;1749168;80;21105;-59
2021/09/16 11:35:52;;;;;;;2.30;0.60;;;;;;;21.27;39.61;99823.17;1746485;80;21913;-56
2021/09/16 11:38:18;;;;;;;3.30;0.70;;;;;;;21.32;39.63;99818.16;1743460;80;21669;-56
2021/09/16 11:40:46;;;;;;;1.30;0.85;;;;;;;21.36;40.05;99820.09;1739805;80;21756;-56
2021/09/16 11:43:16;;;;;;;0.78;0.60;;;;;;;21.39;39.62;99816.58;1746534;80;21727;-56